Time;durP1;ratioP1;P1;durP2;ratioP2;P2;SDS_P1;SDS_P2;PMS_P1;PMS_P2;Temp;Humidity;BMP_temperature;BMP_pressure;BME280_temperature;BME280_humidity;BME280_pressure;Samples;Min_cycle;Max_cycle;Signal;HPM_P1;HPM_P2
2023/05/19 00:00:59;;;;;;;6.25;2.72;;;;;;;10.93;80.47;101436.83;1609473;88;27333;-64
2023/05/19 00:03:27;;;;;;;4.25;2.60;;;;;;;10.92;80.40;101437.11;1609536;89;25762;-63
2023/05/19 00:05:56;;;;;;;5.25;3.00;;;;;;;10.91;80.52;101435.48;1588249;89;25470;-63
2023/05/19 00:08:23;;;;;;;4.45;2.98;;;;;;;10.89;80.51;101436.31;1609507;89;25632;-63
2023/05/19 00:10:51;;;;;;;4.55;2.80;;;;;;;10.89;80.76;101436.31;1670569;84;25488;-65
2023/05/19 00:13:18;;;;;;;7.37;2.85;;;;;;;10.87;80.91;101433.89;1714624;83;27369;-65
2023/05/19 00:15:47;;;;;;;6.65;2.85;;;;;;;10.85;80.94;101438.78;1714587;82;25378;-65
2023/05/19 00:18:15;;;;;;;4.40;2.90;;;;;;;10.84;80.94;101436.64;1714600;83;25561;-64
2023/05/19 00:20:42;;;;;;;4.60;2.95;;;;;;;10.84;81.25;101439.86;1714103;83;25574;-65
2023/05/19 00:23:10;;;;;;;4.20;2.70;;;;;;;10.82;81.57;101437.44;1700952;83;25646;-65
2023/05/19 00:25:36;;;;;;;4.62;2.95;;;;;;;10.83;81.81;101437.71;1713066;82;27336;-65
2023/05/19 00:28:03;;;;;;;4.58;3.12;;;;;;;10.81;81.80;101439.90;1713009;83;25556;-64
2023/05/19 00:30:30;;;;;;;8.68;2.55;;;;;;;10.78;81.99;101434.25;1718217;83;25555;-65
2023/05/19 00:32:56;;;;;;;4.22;2.60;;;;;;;10.78;82.19;101432.89;1712643;83;25483;-56
2023/05/19 00:35:23;;;;;;;5.58;2.77;;;;;;;10.76;82.32;101431.81;1711812;83;25703;-55
2023/05/19 00:37:49;;;;;;;2.98;2.52;;;;;;;10.76;82.38;101431.81;1713116;82;28275;-57
2023/05/19 00:40:17;;;;;;;2.85;2.50;;;;;;;10.75;82.55;101428.04;1713067;82;25460;-57
2023/05/19 00:42:43;;;;;;;3.35;2.55;;;;;;;10.76;82.66;101428.28;1713117;82;25634;-56
2023/05/19 00:45:10;;;;;;;4.65;3.00;;;;;;;10.73;82.74;101424.26;1713010;83;25396;-54
2023/05/19 00:47:36;;;;;;;3.92;2.80;;;;;;;10.71;82.92;101422.91;1718168;83;25451;-55
2023/05/19 00:50:03;;;;;;;5.47;2.65;;;;;;;10.70;82.99;101419.96;1713086;83;27400;-56
2023/05/19 00:52:30;;;;;;;3.55;2.60;;;;;;;10.68;83.12;101421.59;1712988;83;25575;-58
2023/05/19 00:54:57;;;;;;;3.87;2.60;;;;;;;10.67;83.39;101415.11;1713100;82;25408;-56
2023/05/19 00:57:23;;;;;;;4.47;2.67;;;;;;;10.67;83.32;101415.91;1712992;83;27479;-53
2023/05/19 00:59:49;;;;;;;5.05;3.20;;;;;;;10.65;83.38;101417.53;1713062;83;25611;-53
2023/05/19 01:02:16;;;;;;;5.12;2.70;;;;;;;10.65;83.51;101420.80;1706820;83;27265;-53
2023/05/19 01:04:44;;;;;;;4.37;3.15;;;;;;;10.62;83.26;101414.06;1712968;83;25441;-53
2023/05/19 01:07:11;;;;;;;3.52;2.67;;;;;;;10.63;83.75;101416.22;1718169;83;25420;-54
2023/05/19 01:09:39;;;;;;;4.00;2.95;;;;;;;10.62;83.58;101423.53;1712986;83;25402;-59
2023/05/19 01:12:37;;;;;;;3.40;2.33;;;;;;;10.62;83.74;101419.48;1718231;83;25594;-58
2023/05/19 01:15:05;;;;;;;6.17;2.70;;;;;;;10.60;83.48;101414.06;1658743;85;27284;-53
2023/05/19 01:18:09;;;;;;;4.47;2.53;;;;;;;10.59;83.50;101414.62;1658824;86;25617;-56
2023/05/19 01:20:47;;;;;;;5.90;3.02;;;;;;;10.60;83.41;101411.36;1658360;86;25524;-53
2023/05/19 01:23:41;;;;;;;6.00;3.25;;;;;;;10.59;83.64;101414.62;1658578;86;25581;-56
2023/05/19 01:26:48;;;;;;;2.95;2.45;;;;;;;10.58;83.69;101408.14;1656300;86;25689;-57
2023/05/19 01:29:28;;;;;;;2.80;2.30;;;;;;;10.58;83.83;101403.52;1658661;86;27305;-57
2023/05/19 01:31:59;;;;;;;5.25;2.85;;;;;;;10.57;83.76;101401.92;1658552;86;25539;-57
2023/05/19 01:34:27;;;;;;;3.33;2.62;;;;;;;10.56;83.68;101402.20;1658659;86;25671;-57
2023/05/19 01:36:55;;;;;;;4.30;2.90;;;;;;;10.56;83.50;101410.32;1658625;86;25670;-57
2023/05/19 01:39:22;;;;;;;5.03;2.83;;;;;;;10.55;83.77;101405.98;1658680;86;25628;-57
2023/05/19 01:41:50;;;;;;;6.10;3.17;;;;;;;10.54;83.81;101406.55;1658622;86;27306;-54
2023/05/19 01:44:18;;;;;;;4.55;2.58;;;;;;;10.54;84.12;101404.36;1631082;86;25532;-55
2023/05/19 01:46:47;;;;;;;3.65;2.77;;;;;;;10.53;83.96;101404.12;1658658;86;25450;-57
2023/05/19 01:49:15;;;;;;;4.75;2.80;;;;;;;10.51;84.38;101405.75;1631126;86;25741;-57
2023/05/19 01:51:42;;;;;;;5.25;2.98;;;;;;;10.51;84.32;101399.53;1677097;83;25573;-57
2023/05/19 01:54:10;;;;;;;6.75;3.05;;;;;;;10.48;84.20;101402.25;1713353;83;26886;-57
2023/05/19 01:57:29;;;;;;;4.15;2.60;;;;;;;10.47;84.20;101403.33;1712947;83;25420;-56
2023/05/19 02:00:14;;;;;;;5.07;3.20;;;;;;;10.46;84.50;101404.42;1713209;83;25561;-58
2023/05/19 02:03:10;;;;;;;5.00;3.17;;;;;;;10.43;84.83;101399.02;1718101;82;25627;-59
2023/05/19 02:05:52;;;;;;;6.30;3.20;;;;;;;10.41;85.03;101397.14;1712616;83;25609;-57
2023/05/19 02:08:51;;;;;;;3.95;3.02;;;;;;;10.39;85.21;101395.27;1713063;83;28040;-56
2023/05/19 02:11:40;;;;;;;3.85;2.95;;;;;;;10.39;85.49;101391.77;1638734;86;25606;-57
2023/05/19 02:14:20;;;;;;;4.22;2.92;;;;;;;10.36;85.43;101392.33;1669391;85;25502;-58
2023/05/19 02:16:48;;;;;;;4.33;3.20;;;;;;;10.35;85.73;101386.12;1675333;85;25722;-58
2023/05/19 02:19:31;;;;;;;5.55;3.22;;;;;;;10.34;85.84;101390.45;1675444;85;25645;-56
2023/05/19 02:21:58;;;;;;;6.03;3.75;;;;;;;10.34;85.88;101385.05;1639310;87;27412;-56
2023/05/19 02:24:27;;;;;;;7.55;3.47;;;;;;;10.34;85.76;101385.84;1612504;89;25524;-57
2023/05/19 02:26:54;;;;;;;7.12;3.67;;;;;;;10.35;85.81;101382.06;1656001;86;25602;-57
2023/05/19 02:29:20;;;;;;;6.90;3.60;;;;;;;10.36;85.84;101381.51;1656067;86;25407;-58
2023/05/19 02:31:47;;;;;;;6.00;3.37;;;;;;;10.35;86.04;101382.06;1633637;86;25545;-55
2023/05/19 02:34:14;;;;;;;6.05;3.72;;;;;;;10.35;85.80;101379.36;1656038;86;27320;-54
2023/05/19 02:36:42;;;;;;;4.55;3.47;;;;;;;10.35;85.67;101378.00;1655909;86;25676;-55
2023/05/19 02:39:11;;;;;;;4.33;3.47;;;;;;;10.36;85.69;101378.25;1628966;86;25661;-56
2023/05/19 02:41:39;;;;;;;;;;;;;;;10.38;85.93;101379.33;1642194;87;25599;-54
2023/05/19 02:44:07;;;;;;;4.87;3.50;;;;;;;10.38;86.25;101383.38;1617180;87;25692;-56
2023/05/19 02:46:33;;;;;;;4.22;3.80;;;;;;;10.37;86.13;101387.16;1631051;87;27333;-58
2023/05/19 02:49:00;;;;;;;6.08;3.80;;;;;;;10.36;86.13;101388.27;1637918;87;25491;-59
2023/05/19 02:51:26;;;;;;;8.58;4.05;;;;;;;10.35;86.28;101386.12;1637937;87;25692;-58
2023/05/19 02:53:57;;;;;;;7.78;4.58;;;;;;;10.36;86.56;101393.67;1637785;87;25530;-55
2023/05/19 02:56:29;;;;;;;7.35;4.08;;;;;;;10.36;86.69;101386.36;1637765;87;25624;-57
2023/05/19 02:58:58;;;;;;;6.33;4.28;;;;;;;10.37;86.87;101387.99;1637807;87;27415;-59
2023/05/19 03:01:24;;;;;;;5.90;4.22;;;;;;;10.37;86.61;101387.99;1637836;87;27323;-58
2023/05/19 03:03:50;;;;;;;6.37;4.17;;;;;;;10.37;87.12;101392.05;1637818;87;25522;-57
2023/05/19 03:06:18;;;;;;;4.83;4.05;;;;;;;10.37;86.99;101392.05;1668147;84;35160;-59
2023/05/19 03:08:46;;;;;;;6.33;4.55;;;;;;;10.40;87.00;101397.42;1702902;84;25413;-60
2023/05/19 03:11:12;;;;;;;7.08;4.30;;;;;;;10.40;87.35;101396.08;1702890;84;27399;-58
2023/05/19 03:13:42;;;;;;;9.80;5.12;;;;;;;10.40;87.61;101395.55;1702775;84;26013;-58
2023/05/19 03:16:08;;;;;;;9.25;4.58;;;;;;;10.40;87.91;101395.55;1696720;84;25582;-58
2023/05/19 03:18:34;;;;;;;6.78;4.80;;;;;;;10.40;87.96;101394.72;1695413;84;34711;-57
2023/05/19 03:21:05;;;;;;;8.45;4.22;;;;;;;10.39;87.87;101397.98;1695354;84;25409;-58
2023/05/19 03:23:31;;;;;;;8.08;5.60;;;;;;;10.41;87.85;101401.20;1695469;84;27356;-59
2023/05/19 03:26:00;;;;;;;8.25;4.78;;;;;;;10.44;88.25;101402.00;1674187;83;25603;-56
2023/05/19 03:28:26;;;;;;;7.47;5.10;;;;;;;10.48;88.73;101396.03;1710734;83;25454;-58
2023/05/19 03:30:55;;;;;;;7.62;5.00;;;;;;;10.52;88.97;101397.08;1687713;83;25670;-59
2023/05/19 03:33:22;;;;;;;6.67;4.78;;;;;;;10.58;89.50;101398.67;1689583;83;25613;-56
2023/05/19 03:35:49;;;;;;;6.97;5.05;;;;;;;10.64;89.75;101396.17;1720736;83;27307;-58
2023/05/19 03:38:15;;;;;;;8.45;4.95;;;;;;;10.69;89.43;101402.89;1720603;83;25463;-57
2023/05/19 03:40:47;;;;;;;9.15;5.70;;;;;;;10.73;89.23;101398.55;1720751;83;25394;-57
2023/05/19 03:43:14;;;;;;;7.95;5.03;;;;;;;10.74;88.92;101400.15;1703855;83;25993;-57
2023/05/19 03:45:44;;;;;;;6.55;5.00;;;;;;;10.75;88.94;101403.69;1720763;83;25590;-58
2023/05/19 03:48:11;;;;;;;8.20;4.60;;;;;;;10.77;89.04;101399.59;1689558;83;27308;-59
2023/05/19 03:50:38;;;;;;;6.47;5.45;;;;;;;10.78;88.72;101398.51;1720689;83;32771;-57
2023/05/19 03:53:07;;;;;;;10.95;5.53;;;;;;;10.78;88.72;101398.51;1720799;83;25548;-58
2023/05/19 03:55:40;;;;;;;8.60;5.50;;;;;;;10.79;88.96;101395.25;1667492;83;26550;-58
2023/05/19 03:58:09;;;;;;;9.05;5.47;;;;;;;10.80;89.16;101399.58;1689624;83;25397;-58
2023/05/19 04:00:36;;;;;;;8.58;5.75;;;;;;;10.83;89.11;101399.02;1658775;85;27250;-58
2023/05/19 04:03:04;;;;;;;9.90;5.22;;;;;;;10.85;89.32;101388.71;1720665;83;25543;-59
2023/05/19 04:05:35;;;;;;;6.45;5.05;;;;;;;10.90;89.56;101397.34;1720810;83;25629;-58
2023/05/19 04:08:01;;;;;;;9.13;5.00;;;;;;;10.95;89.55;101397.30;1720875;83;27479;-58
2023/05/19 04:10:29;;;;;;;9.03;5.50;;;;;;;10.97;89.32;101395.11;1690246;83;25606;-59
2023/05/19 04:12:57;;;;;;;;;;;;;;;11.01;89.27;101398.85;1723405;83;26778;-58
2023/05/19 04:15:27;;;;;;;8.10;4.83;;;;;;;11.03;89.40;101398.84;1692716;83;27219;-57
2023/05/19 04:17:55;;;;;;;8.65;4.87;;;;;;;11.05;89.46;101395.02;1713032;83;25516;-58
2023/05/19 04:20:23;;;;;;;9.08;5.05;;;;;;;11.05;89.13;101397.73;1712985;83;25536;-58
2023/05/19 04:22:51;;;;;;;4.78;4.08;;;;;;;11.04;88.98;101390.16;1717576;82;25607;-58
2023/05/19 04:25:19;;;;;;;5.85;4.58;;;;;;;11.04;89.19;101390.16;1713006;83;27402;-58
2023/05/19 04:27:47;;;;;;;7.95;4.80;;;;;;;11.09;89.19;101390.67;1712972;83;25554;-58
2023/05/19 04:30:20;;;;;;;8.85;4.65;;;;;;;11.09;88.86;101389.31;1713124;83;25635;-59
2023/05/19 04:32:43;;;;;;;8.23;4.30;;;;;;;11.07;88.94;101390.95;1682058;84;25648;-59
2023/05/19 04:35:12;;;;;;;5.90;4.30;;;;;;;11.08;88.94;101396.61;1673477;84;25442;-58
2023/05/19 04:37:47;;;;;;;4.62;3.70;;;;;;;11.09;89.09;101392.83;1695751;84;27347;-58
2023/05/19 04:40:16;;;;;;;4.42;3.52;;;;;;;11.10;89.08;101391.74;1695488;84;25687;-57
2023/05/19 04:42:44;;;;;;;5.90;4.30;;;;;;;11.14;89.40;101394.13;1695514;84;25707;-60
2023/05/19 04:45:17;;;;;;;6.55;3.83;;;;;;;11.19;89.48;101395.98;1695119;84;25578;-60
2023/05/19 04:47:47;;;;;;;8.40;4.78;;;;;;;11.20;88.99;101398.94;1695545;84;25578;-59
2023/05/19 04:50:15;;;;;;;4.05;3.42;;;;;;;11.22;89.03;101400.84;1695748;84;27341;-60
2023/05/19 04:52:44;;;;;;;6.95;3.45;;;;;;;11.23;89.08;101397.58;1695528;84;25894;-58
2023/05/19 04:55:11;;;;;;;6.17;3.52;;;;;;;11.27;89.14;101397.25;1695579;84;25244;-60
2023/05/19 04:57:38;;;;;;;4.62;3.50;;;;;;;11.29;88.85;101404.53;1695475;84;25553;-60
2023/05/19 05:00:15;;;;;;;4.50;3.20;;;;;;;11.33;89.02;101401.53;1695634;84;25612;-59
2023/05/19 05:02:42;;;;;;;3.45;2.85;;;;;;;11.36;89.12;101399.61;1695582;84;27463;-58
2023/05/19 05:05:09;;;;;;;3.83;3.20;;;;;;;11.36;88.67;101405.83;1695388;84;27133;-58
2023/05/19 05:07:36;;;;;;;5.80;3.67;;;;;;;11.35;88.32;101406.91;1695538;84;25396;-56
2023/05/19 05:10:09;;;;;;;4.05;3.17;;;;;;;11.36;88.39;101405.03;1695459;84;25945;-59
2023/05/19 05:12:45;;;;;;;3.85;2.98;;;;;;;11.38;88.79;101404.98;1695637;84;25479;-60
2023/05/19 05:15:21;;;;;;;3.37;2.60;;;;;;;11.41;88.73;101400.91;1694519;84;27395;-59
2023/05/19 05:17:57;;;;;;;5.08;3.15;;;;;;;11.44;88.73;101403.58;1672315;84;25505;-60
2023/05/19 05:20:33;;;;;;;6.08;2.67;;;;;;;11.44;88.24;101404.93;1690243;84;25722;-54
2023/05/19 05:23:13;;;;;;;4.15;2.60;;;;;;;11.44;87.97;101402.22;1690288;84;27506;-54
2023/05/19 05:25:48;;;;;;;3.98;3.15;;;;;;;11.43;88.05;101403.34;1690362;84;32352;-54
2023/05/19 05:28:18;;;;;;;8.50;3.10;;;;;;;11.42;88.01;101397.64;1672184;84;27256;-57
2023/05/19 05:30:45;;;;;;;4.97;2.50;;;;;;;11.43;88.23;101398.72;1690245;84;25666;-55
2023/05/19 05:33:18;;;;;;;4.15;2.58;;;;;;;11.46;88.12;101404.92;1690212;84;25614;-55
2023/05/19 05:35:45;;;;;;;6.00;2.90;;;;;;;11.49;88.12;101407.58;1690204;84;25517;-54
2023/05/19 05:38:14;;;;;;;4.30;2.45;;;;;;;11.50;87.99;101401.09;1690199;84;25649;-55
2023/05/19 05:40:40;;;;;;;4.75;2.35;;;;;;;11.50;87.98;101403.80;1690301;84;27573;-55
2023/05/19 05:43:06;;;;;;;4.55;2.40;;;;;;;11.52;87.73;101401.59;1690148;84;32785;-54
2023/05/19 05:45:34;;;;;;;6.62;3.02;;;;;;;11.55;88.21;101405.89;1690326;84;25399;-53
2023/05/19 05:48:11;;;;;;;5.33;2.87;;;;;;;11.60;88.19;101400.97;1689698;84;26039;-56
2023/05/19 05:50:43;;;;;;;6.50;2.90;;;;;;;11.64;87.81;101406.05;1689781;84;25691;-52
2023/05/19 05:53:16;;;;;;;4.20;3.05;;;;;;;11.66;87.67;101401.70;1689813;84;28036;-53
2023/05/19 05:55:52;;;;;;;4.28;2.47;;;;;;;11.69;87.72;101403.84;1688977;84;25919;-54
2023/05/19 05:58:20;;;;;;;5.50;2.40;;;;;;;11.73;87.70;101404.87;1686896;84;25593;-54
2023/05/19 06:01:09;;;;;;;4.22;2.45;;;;;;;11.77;87.69;101404.56;1689881;84;26010;-54
2023/05/19 06:03:33;;;;;;;4.53;2.77;;;;;;;11.83;88.01;101407.45;1689601;84;25295;-56
2023/05/19 06:06:05;;;;;;;3.10;2.30;;;;;;;11.92;88.08;101404.97;1690196;84;29487;-57
2023/05/19 06:08:35;;;;;;;3.15;2.83;;;;;;;11.97;88.08;101400.83;1672419;84;25786;-56
2023/05/19 06:11:07;;;;;;;3.95;2.58;;;;;;;12.03;87.71;101404.27;1690283;84;25401;-57
2023/05/19 06:13:40;;;;;;;2.62;2.40;;;;;;;12.10;87.41;101408.78;1690506;84;25516;-53
2023/05/19 06:16:20;;;;;;;3.62;3.05;;;;;;;12.15;87.70;101408.16;1694425;84;25413;-55
2023/05/19 06:18:49;;;;;;;2.55;2.30;;;;;;;12.24;87.34;101408.33;1700334;84;27458;-52
2023/05/19 06:21:16;;;;;;;3.15;2.12;;;;;;;12.31;87.20;101412.83;1700211;84;25614;-54
2023/05/19 06:23:43;;;;;;;4.45;2.55;;;;;;;12.36;86.92;101409.25;1700204;84;25757;-55
2023/05/19 06:26:15;;;;;;;3.85;2.52;;;;;;;12.38;86.88;101406.22;1700299;84;25398;-53
2023/05/19 06:28:42;;;;;;;2.52;2.22;;;;;;;12.45;86.69;101414.26;1666070;84;25245;-52
2023/05/19 06:31:08;;;;;;;5.00;2.65;;;;;;;12.48;86.24;101417.75;1700255;84;26588;-53
2023/05/19 06:33:37;;;;;;;6.65;2.40;;;;;;;12.47;85.80;101413.97;1700095;84;25785;-57
2023/05/19 06:36:08;;;;;;;4.45;2.45;;;;;;;12.48;86.03;101410.96;1700396;84;32346;-56
2023/05/19 06:38:36;;;;;;;2.80;2.33;;;;;;;12.51;86.11;101409.02;1700180;84;27492;-55
2023/05/19 06:41:02;;;;;;;2.27;2.02;;;;;;;12.56;85.98;101409.47;1664440;84;25674;-56
2023/05/19 06:43:29;;;;;;;3.50;2.30;;;;;;;12.56;85.54;101403.25;1664375;84;27305;-57
2023/05/19 06:46:05;;;;;;;5.42;2.35;;;;;;;12.54;84.99;101411.68;1700089;84;25455;-53
2023/05/19 06:48:33;;;;;;;3.08;2.40;;;;;;;12.55;85.37;101412.48;1700322;84;25465;-53
2023/05/19 06:51:09;;;;;;;3.30;2.40;;;;;;;12.56;85.06;101410.03;1670141;84;25595;-57
2023/05/19 06:53:54;;;;;;;2.52;2.22;;;;;;;12.54;84.92;101410.33;1699782;84;25620;-57
2023/05/19 06:56:25;;;;;;;3.05;2.50;;;;;;;12.56;85.18;101408.12;1700320;84;27931;-55
2023/05/19 06:58:54;;;;;;;9.53;2.75;;;;;;;12.57;84.79;101410.30;1700215;84;25607;-55
2023/05/19 07:01:20;;;;;;;5.80;2.70;;;;;;;12.56;84.58;101405.41;1700350;84;25719;-57
2023/05/19 07:03:47;;;;;;;6.75;2.35;;;;;;;12.58;84.89;101404.58;1700229;84;25444;-54
2023/05/19 07:06:21;;;;;;;3.33;2.50;;;;;;;12.64;85.16;101400.66;1700312;84;25417;-55
2023/05/19 07:08:51;;;;;;;4.72;2.02;;;;;;;12.69;85.07;101402.50;1700366;84;27340;-54
2023/05/19 07:11:20;;;;;;;2.97;2.23;;;;;;;12.73;84.83;101402.16;1700418;84;25635;-53
2023/05/19 07:13:53;;;;;;;4.35;2.52;;;;;;;12.79;85.17;101400.98;1700266;84;25457;-55
2023/05/19 07:16:26;;;;;;;5.15;2.65;;;;;;;12.85;84.85;101403.84;1700069;83;26796;-56
2023/05/19 07:18:53;;;;;;;2.87;2.10;;;;;;;12.91;84.99;101405.95;1700235;84;25651;-55
2023/05/19 07:21:25;;;;;;;3.65;2.60;;;;;;;12.97;84.93;101404.73;1700340;84;28390;-56
2023/05/19 07:23:51;;;;;;;4.30;2.30;;;;;;;13.04;84.64;101399.75;1700231;84;25584;-54
2023/05/19 07:26:19;;;;;;;2.87;2.30;;;;;;;13.11;84.71;101403.44;1700224;84;25712;-53
2023/05/19 07:28:48;;;;;;;4.08;2.40;;;;;;;13.18;84.38;101401.69;1700200;84;25587;-54
2023/05/19 07:31:16;;;;;;;4.58;2.90;;;;;;;13.18;83.73;101398.41;1700347;84;25430;-57
2023/05/19 07:33:42;;;;;;;3.60;2.10;;;;;;;13.18;83.36;101403.05;1700400;84;28028;-56
2023/05/19 07:36:12;;;;;;;6.90;4.28;;;;;;;13.19;83.25;101406.00;1700262;84;25626;-56
2023/05/19 07:38:38;;;;;;;;;;;;;;;13.18;82.90;101402.48;1702831;84;25429;-53
2023/05/19 07:41:06;;;;;;;6.17;2.98;;;;;;;13.17;82.71;101407.66;1700338;84;25517;-54
2023/05/19 07:43:33;;;;;;;3.75;3.25;;;;;;;13.14;82.53;101400.66;1700332;84;25631;-57
2023/05/19 07:46:06;;;;;;;4.90;2.70;;;;;;;13.11;82.49;101399.89;1700375;84;27408;-57
2023/05/19 07:48:39;;;;;;;5.65;2.80;;;;;;;13.11;82.62;101400.72;1700286;84;27268;-58
2023/05/19 07:51:08;;;;;;;5.08;3.00;;;;;;;13.11;82.64;101403.97;1696533;84;25483;-57
2023/05/19 07:53:33;;;;;;;8.50;3.50;;;;;;;13.12;82.47;101401.52;1699476;84;25548;-56
2023/05/19 07:56:08;;;;;;;5.22;2.95;;;;;;;13.10;82.25;101397.73;1700565;84;25406;-53
2023/05/19 07:58:40;;;;;;;7.97;3.35;;;;;;;13.08;82.18;101403.47;1691986;84;27421;-55
2023/05/19 08:01:19;;;;;;;5.35;3.08;;;;;;;13.11;82.26;101399.36;1707276;84;25576;-55
2023/05/19 08:03:49;;;;;;;11.88;3.17;;;;;;;13.12;81.94;101402.31;1699710;84;25675;-57
2023/05/19 08:06:18;;;;;;;5.08;2.87;;;;;;;13.11;81.74;101397.17;1684717;85;25910;-55
2023/05/19 08:08:47;;;;;;;7.45;3.85;;;;;;;13.15;82.00;101399.00;1684777;85;25604;-56
2023/05/19 08:11:21;;;;;;;7.92;3.65;;;;;;;13.11;81.37;101394.46;1684642;85;28783;-56
2023/05/19 08:13:48;;;;;;;7.28;3.35;;;;;;;13.13;81.58;101394.96;1684650;85;25632;-55
2023/05/19 08:16:21;;;;;;;9.70;3.77;;;;;;;13.17;81.79;101393.28;1683864;83;25587;-56
2023/05/19 08:18:47;;;;;;;7.97;3.58;;;;;;;13.22;81.82;101396.70;1704714;83;25851;-53
2023/05/19 08:21:41;;;;;;;8.53;3.12;;;;;;;13.24;81.44;101391.77;1709528;83;25556;-53
2023/05/19 08:24:09;;;;;;;10.15;3.45;;;;;;;13.31;81.47;101393.29;1678415;85;29480;-53
2023/05/19 08:26:35;;;;;;;11.68;3.65;;;;;;;13.36;81.56;101394.02;1695515;84;25568;-57
2023/05/19 08:29:04;;;;;;;8.78;3.92;;;;;;;13.46;81.97;101388.95;1695629;84;25560;-56
2023/05/19 08:31:33;;;;;;;16.32;7.08;;;;;;;13.52;81.56;101393.19;1695621;84;25469;-56
2023/05/19 08:34:02;;;;;;;9.98;4.20;;;;;;;13.56;80.61;101398.83;1695849;84;25609;-55
2023/05/19 08:36:29;;;;;;;7.92;3.62;;;;;;;13.54;80.67;101400.48;1695360;84;27386;-55
2023/05/19 08:38:56;;;;;;;10.30;3.47;;;;;;;13.61;81.14;101403.60;1695468;84;25398;-56
2023/05/19 08:41:22;;;;;;;8.90;4.35;;;;;;;13.67;80.83;101398.06;1695534;84;25583;-55
2023/05/19 08:43:49;;;;;;;14.53;4.17;;;;;;;13.68;80.00;101405.12;1695617;84;25493;-56
2023/05/19 08:46:24;;;;;;;16.20;4.20;;;;;;;13.69;79.89;101401.27;1695675;84;25620;-56
2023/05/19 08:49:01;;;;;;;14.05;3.95;;;;;;;13.73;80.17;101407.17;1695611;84;27336;-56
2023/05/19 08:51:39;;;;;;;11.25;3.95;;;;;;;13.74;79.36;101407.44;1695549;84;25470;-55
2023/05/19 08:54:18;;;;;;;10.65;4.03;;;;;;;13.74;79.10;101416.13;1636673;87;25491;-57
2023/05/19 08:56:50;;;;;;;10.18;4.15;;;;;;;13.72;79.47;101410.19;1642209;87;25612;-55
2023/05/19 08:59:30;;;;;;;13.58;4.17;;;;;;;13.78;79.51;101400.84;1643222;87;25473;-54
2023/05/19 09:02:00;;;;;;;12.40;4.20;;;;;;;13.82;79.57;101402.66;1643191;87;27417;-53
2023/05/19 09:04:29;;;;;;;11.15;4.10;;;;;;;13.88;79.71;101400.63;1619068;87;25659;-54
2023/05/19 09:06:57;;;;;;;13.83;4.25;;;;;;;13.92;79.22;101404.33;1643191;87;25609;-57
2023/05/19 09:09:33;;;;;;;8.88;4.20;;;;;;;13.94;79.01;101408.91;1643246;87;25632;-56
2023/05/19 09:11:59;;;;;;;12.65;4.72;;;;;;;13.92;78.58;101405.69;1643288;87;25452;-57
2023/05/19 09:14:29;;;;;;;12.58;4.22;;;;;;;13.91;78.51;101404.09;1643217;87;29530;-57
2023/05/19 09:16:59;;;;;;;14.50;5.03;;;;;;;13.93;78.86;101400.52;1630264;87;25774;-53
2023/05/19 09:19:35;;;;;;;11.38;4.60;;;;;;;13.98;78.73;101402.33;1588297;89;25660;-55
2023/05/19 09:22:05;;;;;;;17.90;5.25;;;;;;;14.01;78.36;101401.16;1612031;89;25665;-57
2023/05/19 09:24:35;;;;;;;9.83;4.47;;;;;;;14.03;78.43;101401.39;1612043;89;25530;-57
2023/05/19 09:27:06;;;;;;;13.30;5.62;;;;;;;14.04;78.38;101397.01;1612004;89;28849;-55
2023/05/19 09:29:38;;;;;;;15.83;5.92;;;;;;;14.06;77.78;101401.58;1611984;89;25483;-56
2023/05/19 09:32:13;;;;;;;12.28;4.90;;;;;;;14.07;77.85;101401.05;1628592;87;25715;-56
2023/05/19 09:34:41;;;;;;;10.93;4.40;;;;;;;14.09;77.83;101401.55;1656869;85;25763;-57
2023/05/19 09:37:07;;;;;;;13.28;5.47;;;;;;;14.07;77.45;101395.61;1661842;86;25635;-56
2023/05/19 09:39:35;;;;;;;14.38;4.83;;;;;;;14.09;77.52;101394.74;1635619;86;27245;-58
2023/05/19 09:42:07;;;;;;;12.70;5.10;;;;;;;14.11;77.55;101394.67;1642291;86;25440;-58
2023/05/19 09:44:35;;;;;;;10.72;4.42;;;;;;;14.17;77.96;101397.54;1661695;86;25481;-58
2023/05/19 09:47:04;;;;;;;14.90;5.45;;;;;;;14.24;78.02;101403.13;1661643;86;25631;-57
2023/05/19 09:49:31;;;;;;;9.85;3.95;;;;;;;14.30;77.88;101401.34;1634464;86;25659;-58
2023/05/19 09:52:07;;;;;;;13.98;5.20;;;;;;;14.37;77.89;101409.09;1661585;86;29493;-57
2023/05/19 09:57:37;;;;;;;7.75;4.03;;;;;;;14.45;77.37;101406.97;1661705;86;25553;-56
2023/05/19 10:00:13;;;;;;;12.43;4.85;;;;;;;14.46;77.12;101399.06;1661732;86;25548;-57
2023/05/19 10:02:44;;;;;;;12.95;4.90;;;;;;;14.47;76.85;101398.50;1661397;86;25637;-57
2023/05/19 10:05:19;;;;;;;10.43;4.20;;;;;;;14.46;76.80;101398.27;1661762;86;27402;-57
2023/05/19 10:07:47;;;;;;;14.58;4.80;;;;;;;14.48;76.87;101395.47;1661599;86;25694;-54
2023/05/19 10:10:15;;;;;;;14.55;4.67;;;;;;;14.53;77.14;101392.63;1661725;86;25600;-54
2023/05/19 10:12:43;;;;;;;11.70;5.22;;;;;;;14.57;76.72;101389.55;1661687;86;26036;-57
2023/05/19 10:15:14;;;;;;;11.28;5.37;;;;;;;14.63;76.91;101389.46;1661709;86;25423;-55
2023/05/19 10:17:43;;;;;;;17.75;5.42;;;;;;;14.69;76.76;101393.66;1691472;83;27290;-55
2023/05/19 10:20:16;;;;;;;9.98;4.20;;;;;;;14.72;76.10;101394.41;1712933;83;25647;-56
2023/05/19 10:22:46;;;;;;;13.58;5.00;;;;;;;14.75;76.14;101396.51;1713155;83;25447;-55
2023/05/19 10:25:17;;;;;;;13.28;5.20;;;;;;;14.79;76.15;101387.16;1712923;83;25564;-56
2023/05/19 10:27:57;;;;;;;16.15;5.45;;;;;;;14.84;76.16;101395.99;1712963;83;25456;-57
2023/05/19 10:30:41;;;;;;;9.70;4.15;;;;;;;14.88;75.97;101386.64;1705840;83;27609;-57
2023/05/19 10:33:13;;;;;;;11.15;4.85;;;;;;;14.95;75.96;101387.03;1711229;83;27113;-56
2023/05/19 10:36:01;;;;;;;10.98;5.10;;;;;;;14.99;75.66;101381.75;1713048;83;25560;-54
2023/05/19 10:38:54;;;;;;;9.83;5.47;;;;;;;15.07;75.45;101375.55;1712894;83;27443;-56
2023/05/19 10:41:28;;;;;;;9.63;4.08;;;;;;;15.12;75.30;101380.87;1664158;84;25671;-53
2023/05/19 10:44:17;;;;;;;9.35;4.22;;;;;;;15.19;74.90;101378.49;1655819;86;28354;-55
2023/05/19 10:46:45;;;;;;;10.67;5.17;;;;;;;15.23;74.89;101380.82;1655114;86;25448;-54
2023/05/19 10:49:23;;;;;;;17.80;8.35;;;;;;;15.29;74.76;101378.22;1655893;86;25710;-55
2023/05/19 10:51:56;;;;;;;11.03;5.45;;;;;;;15.37;74.69;101378.56;1655868;86;25443;-55
2023/05/19 10:54:45;;;;;;;10.55;5.08;;;;;;;15.46;74.81;101383.47;1656017;86;25455;-54
2023/05/19 10:57:19;;;;;;;10.25;5.17;;;;;;;15.47;74.27;101373.61;1656081;86;27569;-58
2023/05/19 10:59:45;;;;;;;8.90;4.25;;;;;;;15.53;74.10;101378.92;1655845;86;26173;-56
2023/05/19 11:02:44;;;;;;;10.40;5.00;;;;;;;15.54;73.85;101379.97;1655989;86;25510;-52
2023/05/19 11:05:20;;;;;;;7.17;4.60;;;;;;;15.59;73.94;101383.13;1656111;86;25805;-53
2023/05/19 11:08:03;;;;;;;8.83;4.35;;;;;;;15.63;73.85;101386.27;1655381;86;25682;-53
2023/05/19 11:10:26;;;;;;;13.35;4.37;;;;;;;15.65;73.23;101384.59;1654301;86;27422;-54
2023/05/19 11:12:54;;;;;;;11.30;4.40;;;;;;;15.69;73.29;101381.47;1655726;86;25764;-57
2023/05/19 11:15:28;;;;;;;7.30;4.30;;;;;;;15.75;73.00;101383.48;1633380;86;25697;-57
2023/05/19 11:17:55;;;;;;;8.45;3.83;;;;;;;15.82;73.26;101383.30;1669891;84;25646;-59
2023/05/19 11:20:27;;;;;;;7.97;4.15;;;;;;;15.90;73.16;101377.60;1692971;84;25476;-60
2023/05/19 11:23:08;;;;;;;10.32;4.25;;;;;;;15.99;72.67;101381.16;1692834;84;27383;-60
2023/05/19 11:25:46;;;;;;;9.00;4.62;;;;;;;16.03;72.65;101379.39;1692766;84;25802;-63
2023/05/19 11:28:18;;;;;;;9.38;4.55;;;;;;;16.11;72.63;101382.47;1692847;84;25582;-59
2023/05/19 11:30:51;;;;;;;8.60;4.22;;;;;;;16.15;72.16;101384.79;1691958;84;25857;-59
2023/05/19 11:33:25;;;;;;;9.30;4.30;;;;;;;16.17;71.82;101381.17;1692977;84;25439;-60
2023/05/19 11:35:56;;;;;;;7.87;3.98;;;;;;;16.15;71.53;101380.13;1691495;84;27400;-58
2023/05/19 11:38:26;;;;;;;9.60;4.22;;;;;;;16.13;71.25;101387.04;1670757;84;26598;-62
2023/05/19 11:40:56;;;;;;;9.73;4.40;;;;;;;16.07;71.09;101380.91;1692812;84;25610;-60
2023/05/19 11:43:27;;;;;;;10.45;4.47;;;;;;;16.08;71.23;101381.17;1692874;84;26018;-60
2023/05/19 11:45:57;;;;;;;9.93;4.30;;;;;;;16.12;71.28;101373.94;1692930;84;25483;-60